createdAt,value
2022-12-11T00:00:23.779Z,15.07
2022-12-11T00:03:15.675Z,14.68
2022-12-11T00:05:43.452Z,14.20
2022-12-11T00:08:10.295Z,15.27
2022-12-11T00:10:38.033Z,14.15
2022-12-11T00:13:05.238Z,14.52
2022-12-11T00:15:32.319Z,15.25
2022-12-11T00:17:59.091Z,14.02
2022-12-11T00:20:26.070Z,14.45
2022-12-11T00:22:52.786Z,15.80
2022-12-11T00:25:19.838Z,14.93
2022-12-11T00:27:47.345Z,15.40
2022-12-11T00:30:15.166Z,14.80
2022-12-11T00:32:43.175Z,16.52
2022-12-11T00:35:11.112Z,16.05
2022-12-11T00:37:38.125Z,15.18
2022-12-11T00:40:05.745Z,15.85
2022-12-11T00:42:32.454Z,15.15
2022-12-11T00:44:59.491Z,16.38
2022-12-11T00:47:26.285Z,14.95
2022-12-11T00:49:53.285Z,17.63
2022-12-11T00:52:20.045Z,16.23
2022-12-11T00:54:47.102Z,15.70
2022-12-11T00:57:13.822Z,15.77
2022-12-11T00:59:40.871Z,15.70
2022-12-11T01:02:07.626Z,15.18
2022-12-11T01:04:36.040Z,15.43
2022-12-11T01:07:02.821Z,16.85
2022-12-11T01:09:48.685Z,16.38
2022-12-11T01:12:15.428Z,15.30
2022-12-11T01:14:42.448Z,15.95
2022-12-11T01:17:09.175Z,17.50
2022-12-11T01:19:36.345Z,17.17
2022-12-11T01:22:03.085Z,16.27
2022-12-11T01:24:30.117Z,16.10
2022-12-11T01:26:56.865Z,17.88
2022-12-11T01:29:23.921Z,16.98
2022-12-11T01:31:50.656Z,17.42
2022-12-11T01:34:17.648Z,18.30
2022-12-11T01:36:44.561Z,17.95
2022-12-11T01:39:11.592Z,17.40
2022-12-11T01:41:38.333Z,17.65
2022-12-11T01:44:06.356Z,17.85
2022-12-11T01:46:34.860Z,18.80
2022-12-11T01:49:03.912Z,18.83
2022-12-11T01:51:31.957Z,19.33
2022-12-11T01:54:10.889Z,18.95
2022-12-11T01:56:38.059Z,18.65
2022-12-11T01:59:07.111Z,18.67
2022-12-11T02:01:43.376Z,17.58
2022-12-11T02:04:11.066Z,19.00
2022-12-11T02:06:40.307Z,19.17
2022-12-11T02:09:13.816Z,18.92
2022-12-11T02:12:11.656Z,18.42
2022-12-11T02:14:40.112Z,18.70
2022-12-11T02:17:12.032Z,18.25
2022-12-11T02:20:07.309Z,18.23
2022-12-11T02:22:58.435Z,18.83
2022-12-11T02:25:25.443Z,18.52
2022-12-11T02:28:17.272Z,17.58
2022-12-11T02:31:06.437Z,18.27
2022-12-11T02:33:37.244Z,18.45
2022-12-11T02:36:05.114Z,19.90
2022-12-11T02:38:33.912Z,18.73
2022-12-11T02:41:01.006Z,19.80
2022-12-11T02:43:29.336Z,18.70
2022-12-11T02:45:56.419Z,17.63
2022-12-11T02:48:23.190Z,18.38
2022-12-11T02:50:51.538Z,18.35
2022-12-11T02:53:20.091Z,19.55
2022-12-11T02:55:48.107Z,17.35
2022-12-11T02:58:17.904Z,18.70
2022-12-11T03:00:45.387Z,16.40
2022-12-11T03:03:12.495Z,17.92
2022-12-11T03:05:39.909Z,17.80
2022-12-11T03:08:06.727Z,16.60
2022-12-11T03:10:33.758Z,17.55
2022-12-11T03:13:00.515Z,16.77
2022-12-11T03:15:39.851Z,17.52
2022-12-11T03:18:21.216Z,17.23
2022-12-11T03:20:54.455Z,17.77
2022-12-11T03:23:46.058Z,17.10
2022-12-11T03:26:13.819Z,16.45
2022-12-11T03:28:40.534Z,16.83
2022-12-11T03:31:16.955Z,16.92
2022-12-11T03:33:44.866Z,18.02
2022-12-11T03:36:14.579Z,17.77
2022-12-11T03:38:49.345Z,15.98
2022-12-11T03:41:17.246Z,16.38
2022-12-11T03:43:44.158Z,17.02
2022-12-11T03:46:14.613Z,16.40
2022-12-11T03:48:42.358Z,17.58
2022-12-11T03:51:10.422Z,16.90
2022-12-11T03:53:37.343Z,17.02
2022-12-11T03:56:04.803Z,16.95
2022-12-11T03:58:31.876Z,16.38
2022-12-11T04:00:58.907Z,16.15
2022-12-11T04:03:25.843Z,15.65
2022-12-11T04:05:54.442Z,15.32
2022-12-11T04:08:21.542Z,15.93
2022-12-11T04:11:09.285Z,14.93
2022-12-11T04:13:36.500Z,16.33
2022-12-11T04:16:03.760Z,14.95
2022-12-11T04:18:49.159Z,13.57
2022-12-11T04:21:39.241Z,14.35
2022-12-11T04:24:16.146Z,12.57
2022-12-11T04:26:46.799Z,14.88
2022-12-11T04:29:14.084Z,13.25
2022-12-11T04:31:41.190Z,14.35
2022-12-11T04:34:07.950Z,14.23
2022-12-11T04:36:35.719Z,13.73
2022-12-11T04:39:02.507Z,13.10
2022-12-11T04:41:29.507Z,13.88
2022-12-11T04:43:56.299Z,13.13
2022-12-11T04:46:23.960Z,13.43
2022-12-11T04:48:57.018Z,13.15
2022-12-11T04:51:24.790Z,12.52
2022-12-11T04:53:51.580Z,12.85
2022-12-11T04:56:18.885Z,12.90
2022-12-11T04:58:46.076Z,13.68
2022-12-11T05:01:17.885Z,13.27
2022-12-11T05:03:44.782Z,12.23
2022-12-11T05:06:12.065Z,12.95
2022-12-11T05:08:40.343Z,12.00
2022-12-11T05:11:09.882Z,12.35
2022-12-11T05:13:36.691Z,12.32
2022-12-11T05:16:05.565Z,12.07
2022-12-11T05:18:32.346Z,12.70
2022-12-11T05:21:04.938Z,11.77
2022-12-11T05:23:31.851Z,11.90
2022-12-11T05:26:03.576Z,12.30
2022-12-11T05:28:31.639Z,11.68
2022-12-11T05:31:04.303Z,11.90
2022-12-11T05:33:31.266Z,12.18
2022-12-11T05:35:58.320Z,11.52
2022-12-11T05:38:25.432Z,12.98
2022-12-11T05:40:59.664Z,11.85
2022-12-11T05:43:26.621Z,12.93
2022-12-11T05:45:53.860Z,13.10
2022-12-11T05:48:20.557Z,12.73
2022-12-11T05:51:00.366Z,13.20
2022-12-11T05:53:27.350Z,13.18
2022-12-11T05:55:54.453Z,12.35
2022-12-11T05:58:21.405Z,13.00
2022-12-11T06:00:48.480Z,13.13
2022-12-11T06:03:15.323Z,12.98
2022-12-11T06:05:42.573Z,12.77
2022-12-11T06:08:09.438Z,13.75
2022-12-11T06:10:36.557Z,13.55
2022-12-11T06:13:03.471Z,13.52
2022-12-11T06:15:30.493Z,14.23
2022-12-11T06:17:57.194Z,13.77
2022-12-11T06:20:24.263Z,13.77
2022-12-11T06:22:50.992Z,13.68
2022-12-11T06:25:18.164Z,15.15
2022-12-11T06:27:44.928Z,14.88
2022-12-11T06:30:12.334Z,16.05
2022-12-11T06:32:39.085Z,14.20
2022-12-11T06:35:06.508Z,14.82
2022-12-11T06:37:35.047Z,16.55
2022-12-11T06:40:02.643Z,16.08
2022-12-11T06:42:30.296Z,16.52
2022-12-11T06:44:59.731Z,15.15
2022-12-11T06:47:27.393Z,15.57
2022-12-11T06:49:54.544Z,17.08
2022-12-11T06:52:24.329Z,17.80
2022-12-11T06:54:51.396Z,17.45
2022-12-11T06:57:18.120Z,16.05
2022-12-11T06:59:45.364Z,17.58
2022-12-11T07:02:15.934Z,18.38
2022-12-11T07:04:43.352Z,17.67
2022-12-11T07:07:10.220Z,18.15
2022-12-11T07:09:38.485Z,18.35
2022-12-11T07:12:05.393Z,18.48
2022-12-11T07:14:32.572Z,18.70
2022-12-11T07:16:59.431Z,20.40
2022-12-11T07:19:26.684Z,19.30
2022-12-11T07:21:53.445Z,18.85
2022-12-11T07:24:20.459Z,19.92
2022-12-11T07:26:47.243Z,20.92
2022-12-11T07:29:14.280Z,21.33
2022-12-11T07:31:41.100Z,22.25
2022-12-11T07:34:08.164Z,20.70
2022-12-11T07:36:34.987Z,21.20
2022-12-11T07:39:02.138Z,22.23
2022-12-11T07:41:28.930Z,19.30
2022-12-11T07:43:56.082Z,20.23
2022-12-11T07:46:24.171Z,19.95
2022-12-11T07:48:51.259Z,19.67
2022-12-11T07:51:19.859Z,19.92
2022-12-11T07:53:48.053Z,19.80
2022-12-11T07:56:15.755Z,19.30
2022-12-11T07:58:42.839Z,19.08
2022-12-11T08:01:14.667Z,19.60
2022-12-11T08:03:42.193Z,19.23
2022-12-11T08:06:09.086Z,18.38
2022-12-11T08:08:36.162Z,17.95
2022-12-11T08:11:06.988Z,19.50
2022-12-11T08:13:34.040Z,18.73
2022-12-11T08:16:04.516Z,18.15
2022-12-11T08:18:32.619Z,19.05
2022-12-11T08:20:59.317Z,18.48
2022-12-11T08:23:26.478Z,18.80
2022-12-11T08:25:53.207Z,19.17
2022-12-11T08:28:20.266Z,19.30
2022-12-11T08:30:47.058Z,19.85
2022-12-11T08:33:14.355Z,20.17
2022-12-11T08:35:44.049Z,20.65
2022-12-11T08:38:11.108Z,18.63
2022-12-11T08:40:37.860Z,19.10
2022-12-11T08:43:04.876Z,21.42
2022-12-11T08:45:31.671Z,21.05
2022-12-11T08:47:59.608Z,20.05
2022-12-11T08:50:26.341Z,22.20
2022-12-11T08:52:53.877Z,21.38
2022-12-11T08:55:21.988Z,22.92
2022-12-11T08:57:49.106Z,22.15
2022-12-11T09:00:18.537Z,23.50
2022-12-11T09:02:45.694Z,23.38
2022-12-11T09:05:12.924Z,23.63
2022-12-11T09:07:40.118Z,25.90
2022-12-11T09:10:07.250Z,23.95
2022-12-11T09:12:34.744Z,24.13
2022-12-11T09:15:01.510Z,24.77
2022-12-11T09:17:28.561Z,24.10
2022-12-11T09:19:55.302Z,24.17
2022-12-11T09:22:22.451Z,24.40
2022-12-11T09:24:49.231Z,24.17
2022-12-11T09:27:16.330Z,22.95
2022-12-11T09:29:43.065Z,24.67
2022-12-11T09:32:10.190Z,22.15
2022-12-11T09:34:36.973Z,22.25
2022-12-11T09:37:04.030Z,23.42
2022-12-11T09:39:30.735Z,22.77
2022-12-11T09:42:13.999Z,22.13
2022-12-11T09:44:46.017Z,24.38
2022-12-11T09:47:35.889Z,20.60
2022-12-11T09:50:19.936Z,22.35
2022-12-11T09:52:47.034Z,21.05
2022-12-11T09:55:16.800Z,20.63
2022-12-11T09:58:02.019Z,19.95
2022-12-11T10:00:31.666Z,19.75
2022-12-11T10:03:04.480Z,18.65
2022-12-11T10:05:49.596Z,20.30
2022-12-11T10:08:47.758Z,20.35
2022-12-11T10:11:30.047Z,18.75
2022-12-11T10:14:08.789Z,18.63
2022-12-11T10:16:40.327Z,19.10
2022-12-11T10:19:29.342Z,19.35
2022-12-11T10:21:56.227Z,17.67
2022-12-11T10:25:13.031Z,18.30
2022-12-11T10:27:40.360Z,17.20
2022-12-11T10:30:21.684Z,17.05
2022-12-11T10:33:02.098Z,17.48
2022-12-11T10:35:55.969Z,18.85
2022-12-11T10:38:38.707Z,17.20
2022-12-11T10:41:21.063Z,17.67
2022-12-11T10:43:49.479Z,15.95
2022-12-11T10:46:17.778Z,17.45
2022-12-11T10:48:58.416Z,15.93
2022-12-11T10:51:36.157Z,15.65
2022-12-11T10:54:08.627Z,16.60
2022-12-11T10:56:36.022Z,15.80
2022-12-11T10:59:02.967Z,16.38
2022-12-11T11:01:31.486Z,17.13
2022-12-11T11:04:06.734Z,16.90
2022-12-11T11:06:33.820Z,16.25
2022-12-11T11:09:01.316Z,16.40
2022-12-11T11:11:34.318Z,18.48
2022-12-11T11:14:18.587Z,17.88
2022-12-11T11:16:47.123Z,18.15
2022-12-11T11:19:34.131Z,18.92
2022-12-11T11:22:03.079Z,19.25
2022-12-11T11:24:34.636Z,20.02
2022-12-11T11:27:13.286Z,22.08
2022-12-11T11:29:40.559Z,23.60
2022-12-11T11:32:20.595Z,22.70
2022-12-11T11:34:47.410Z,25.10
2022-12-11T11:37:25.235Z,25.70
2022-12-11T11:39:53.222Z,25.33
2022-12-11T11:42:29.903Z,27.10
2022-12-11T11:45:02.298Z,29.25
2022-12-11T11:47:32.038Z,27.92
2022-12-11T11:50:04.450Z,29.92
2022-12-11T11:52:44.287Z,30.67
2022-12-11T11:55:21.647Z,31.92
2022-12-11T11:57:58.093Z,29.23
2022-12-11T12:00:31.925Z,32.05
2022-12-11T12:03:03.033Z,34.17
2022-12-11T12:05:39.447Z,34.05
2022-12-11T12:08:09.655Z,33.88
2022-12-11T12:11:15.425Z,31.73
2022-12-11T12:13:49.584Z,33.00
2022-12-11T12:16:52.787Z,34.00
2022-12-11T12:19:23.636Z,32.92
2022-12-11T12:21:52.199Z,31.23
2022-12-11T12:24:41.330Z,32.35
2022-12-11T12:27:50.558Z,32.38
2022-12-11T12:30:16.131Z,31.83
2022-12-11T12:33:05.734Z,31.75
2022-12-11T12:35:36.224Z,31.77
2022-12-11T12:38:25.780Z,29.30
2022-12-11T12:41:14.170Z,29.30
2022-12-11T12:44:03.540Z,28.95
2022-12-11T12:46:43.545Z,28.23
2022-12-11T12:49:19.567Z,26.63
2022-12-11T12:51:46.627Z,24.60
2022-12-11T12:54:15.699Z,25.77
2022-12-11T12:56:45.128Z,25.77
2022-12-11T12:59:23.019Z,24.85
2022-12-11T13:01:52.449Z,24.33
2022-12-11T13:07:31.210Z,25.45
2022-12-11T13:10:01.486Z,24.42
2022-12-11T13:12:42.595Z,23.50
2022-12-11T13:15:24.871Z,23.33
2022-12-11T13:17:52.044Z,23.30
2022-12-11T13:20:20.479Z,24.20
2022-12-11T13:22:49.726Z,23.55
2022-12-11T13:25:27.279Z,22.05
2022-12-11T13:28:07.870Z,22.30
2022-12-11T13:30:34.974Z,21.40
2022-12-11T13:33:06.989Z,21.10
2022-12-11T13:35:34.301Z,21.50
2022-12-11T13:38:08.797Z,21.27
2022-12-11T13:40:39.117Z,21.08
2022-12-11T13:43:27.853Z,20.00
2022-12-11T13:45:59.505Z,21.02
2022-12-11T13:48:41.201Z,20.58
2022-12-11T13:51:07.969Z,19.60
2022-12-11T13:53:35.022Z,19.67
2022-12-11T13:56:06.717Z,20.58
2022-12-11T13:58:39.874Z,19.10
2022-12-11T14:01:17.263Z,20.52
2022-12-11T14:04:03.391Z,19.83
2022-12-11T14:08:58.550Z,18.70
2022-12-11T14:11:28.750Z,18.70
2022-12-11T14:13:57.358Z,17.17
2022-12-11T14:16:24.707Z,17.92
2022-12-11T14:18:51.834Z,18.92
2022-12-11T14:21:24.422Z,18.45
2022-12-11T14:23:53.642Z,18.58
2022-12-11T14:26:24.729Z,18.80
2022-12-11T14:28:51.992Z,19.92
2022-12-11T14:31:36.397Z,18.75
2022-12-11T14:34:15.949Z,19.37
2022-12-11T14:36:42.716Z,19.60
2022-12-11T14:39:42.265Z,20.98
2022-12-11T14:42:17.360Z,18.65
2022-12-11T14:44:55.081Z,20.42
2022-12-11T14:47:27.509Z,20.52
2022-12-11T14:50:06.378Z,21.65
2022-12-11T14:52:36.390Z,19.50
2022-12-11T14:55:07.433Z,18.90
2022-12-11T14:57:34.431Z,18.90
2022-12-11T15:00:01.587Z,18.52
2022-12-11T15:02:30.414Z,19.13
2022-12-11T15:05:04.074Z,17.83
2022-12-11T15:07:31.270Z,17.67
2022-12-11T15:09:58.035Z,19.67
2022-12-11T15:12:25.135Z,17.98
2022-12-11T15:15:00.902Z,17.33
2022-12-11T15:17:28.086Z,17.90
2022-12-11T15:19:57.070Z,18.20
2022-12-11T15:22:25.222Z,16.38
2022-12-11T15:24:53.023Z,17.10
2022-12-11T15:27:37.404Z,16.95
2022-12-11T15:30:26.781Z,17.98
2022-12-11T15:33:09.444Z,17.00
2022-12-11T15:35:36.466Z,17.27
2022-12-11T15:38:03.486Z,17.33
2022-12-11T15:40:30.257Z,16.50
2022-12-11T15:42:57.434Z,17.83
2022-12-11T15:45:28.521Z,17.83
2022-12-11T15:47:55.760Z,18.13
2022-12-11T15:50:27.045Z,18.50
2022-12-11T15:52:55.226Z,18.35
2022-12-11T15:55:22.842Z,18.75
2022-12-11T15:57:54.623Z,17.75
2022-12-11T16:00:21.803Z,19.33
2022-12-11T16:02:48.963Z,18.48
2022-12-11T16:05:16.323Z,17.27
2022-12-11T16:07:43.507Z,17.52
2022-12-11T16:10:15.333Z,19.05
2022-12-11T16:12:43.468Z,18.73
2022-12-11T16:15:17.459Z,18.10
2022-12-11T16:17:48.670Z,17.08
2022-12-11T16:20:15.545Z,17.08
2022-12-11T16:22:42.615Z,16.98
2022-12-11T16:25:09.805Z,17.70
2022-12-11T16:27:37.783Z,17.40
2022-12-11T16:30:05.186Z,16.88
2022-12-11T16:32:32.648Z,16.48
2022-12-11T16:35:02.411Z,16.33
2022-12-11T16:37:29.497Z,17.55
2022-12-11T16:39:56.330Z,17.50
2022-12-11T16:42:23.592Z,16.52
2022-12-11T16:44:50.402Z,16.13
2022-12-11T16:47:17.415Z,16.50
2022-12-11T16:49:44.209Z,15.77
2022-12-11T16:52:11.305Z,16.42
2022-12-11T16:54:38.013Z,16.63
2022-12-11T16:57:05.107Z,16.88
2022-12-11T16:59:36.811Z,16.95
2022-12-11T17:02:05.093Z,16.90
2022-12-11T17:04:32.638Z,15.88
2022-12-11T17:06:59.685Z,15.90
2022-12-11T17:09:26.377Z,16.02
2022-12-11T17:11:53.486Z,16.60
2022-12-11T17:14:20.378Z,16.30
2022-12-11T17:16:48.166Z,17.38
2022-12-11T17:19:15.250Z,17.63
2022-12-11T17:21:45.807Z,16.90
2022-12-11T17:24:15.513Z,16.52
2022-12-11T17:26:42.679Z,17.73
2022-12-11T17:29:12.625Z,16.25
2022-12-11T17:31:39.885Z,16.40
2022-12-11T17:34:06.671Z,17.42
2022-12-11T17:36:33.748Z,16.45
2022-12-11T17:39:00.443Z,18.42
2022-12-11T17:41:27.616Z,17.35
2022-12-11T17:43:54.411Z,17.55
2022-12-11T17:46:21.601Z,16.45
2022-12-11T17:48:48.714Z,16.75
2022-12-11T17:51:23.961Z,18.20
2022-12-11T17:53:51.687Z,16.27
2022-12-11T17:56:18.918Z,18.48
2022-12-11T17:58:45.798Z,18.42
2022-12-11T18:01:13.241Z,16.90
2022-12-11T18:03:40.198Z,15.85
2022-12-11T18:06:09.999Z,16.08
2022-12-11T18:08:36.896Z,16.55
2022-12-11T18:11:05.893Z,16.15
2022-12-11T18:13:32.764Z,16.17
2022-12-11T18:16:04.293Z,16.23
2022-12-11T18:18:31.316Z,16.65
2022-12-11T18:20:58.553Z,18.20
2022-12-11T18:23:25.379Z,16.27
2022-12-11T18:25:52.621Z,16.98
2022-12-11T18:28:19.505Z,16.83
2022-12-11T18:30:46.914Z,17.23
2022-12-11T18:33:13.792Z,16.63
2022-12-11T18:35:41.325Z,16.40
2022-12-11T18:38:08.345Z,15.00
2022-12-11T18:40:35.587Z,15.90
2022-12-11T18:43:02.458Z,15.75
2022-12-11T18:45:30.317Z,15.85
2022-12-11T18:47:57.210Z,17.20
2022-12-11T18:50:24.225Z,15.48
2022-12-11T18:52:54.850Z,17.48
2022-12-11T18:55:22.015Z,15.52
2022-12-11T18:57:48.774Z,15.93
2022-12-11T19:00:16.866Z,15.98
2022-12-11T19:03:05.860Z,14.23
2022-12-11T19:06:08.582Z,15.07
2022-12-11T19:12:09.954Z,15.30
2022-12-11T19:14:37.162Z,15.63
2022-12-11T19:17:04.004Z,15.98
2022-12-11T19:19:31.040Z,14.18
2022-12-11T19:21:57.752Z,15.75
2022-12-11T19:24:24.970Z,15.90
2022-12-11T19:26:51.742Z,16.40
2022-12-11T19:29:34.494Z,16.55
2022-12-11T19:32:01.757Z,16.65
2022-12-11T19:34:28.836Z,17.48
2022-12-11T19:36:55.690Z,16.13
2022-12-11T19:39:22.728Z,17.85
2022-12-11T19:41:49.538Z,17.70
2022-12-11T19:44:16.720Z,18.25
2022-12-11T19:46:43.961Z,18.00
2022-12-11T19:49:11.394Z,16.45
2022-12-11T19:51:38.997Z,16.33
2022-12-11T19:54:07.284Z,16.55
2022-12-11T19:56:34.400Z,16.63
2022-12-11T19:59:02.917Z,17.15
2022-12-11T20:01:31.165Z,16.50
2022-12-11T20:04:00.104Z,16.45
2022-12-11T20:06:30.989Z,14.70
2022-12-11T20:08:58.141Z,16.63
2022-12-11T20:11:24.937Z,14.45
2022-12-11T20:13:52.092Z,15.20
2022-12-11T20:16:33.334Z,15.27
2022-12-11T20:19:06.557Z,15.52
2022-12-11T20:21:34.019Z,16.40
2022-12-11T20:24:01.061Z,15.05
2022-12-11T20:26:29.642Z,15.52
2022-12-11T20:28:56.638Z,16.92
2022-12-11T20:31:24.490Z,15.55
2022-12-11T20:33:52.401Z,14.20
2022-12-11T20:36:19.956Z,14.20
2022-12-11T20:38:47.174Z,15.52
2022-12-11T20:41:15.458Z,15.27
2022-12-11T20:43:42.547Z,15.32
2022-12-11T20:46:10.487Z,15.88
2022-12-11T20:48:37.780Z,17.45
2022-12-11T20:51:05.219Z,19.55
2022-12-11T20:53:32.284Z,21.15
2022-12-11T20:55:59.122Z,21.27
2022-12-11T20:58:26.232Z,22.65
2022-12-11T21:00:53.131Z,22.80
2022-12-11T21:03:20.234Z,21.88
2022-12-11T21:05:47.034Z,24.85
2022-12-11T21:08:14.123Z,25.67
2022-12-11T21:10:42.013Z,25.05
2022-12-11T21:13:09.268Z,26.48
2022-12-11T21:15:39.241Z,27.45
2022-12-11T21:18:07.236Z,28.52
2022-12-11T21:20:34.112Z,27.85
2022-12-11T21:23:01.553Z,29.92
2022-12-11T21:25:28.292Z,29.67
2022-12-11T21:27:55.342Z,28.70
2022-12-11T21:30:22.252Z,28.67
2022-12-11T21:32:49.304Z,27.83
2022-12-11T21:35:16.649Z,28.10
2022-12-11T21:37:43.791Z,27.13
2022-12-11T21:40:11.148Z,26.92
2022-12-11T21:42:38.216Z,28.08
2022-12-11T21:47:53.276Z,25.63
2022-12-11T21:50:20.035Z,25.23
2022-12-11T21:52:47.539Z,24.95
2022-12-11T21:55:14.565Z,25.58
2022-12-11T21:57:41.679Z,23.55
2022-12-11T22:00:09.535Z,23.30
2022-12-11T22:02:40.802Z,24.67
2022-12-11T22:05:09.135Z,23.10
2022-12-11T22:07:36.407Z,22.65
2022-12-11T22:10:04.145Z,22.83
2022-12-11T22:12:31.243Z,22.77
2022-12-11T22:14:57.999Z,21.23
2022-12-11T22:17:25.086Z,22.48
2022-12-11T22:19:54.663Z,22.00
2022-12-11T22:22:21.686Z,23.05
2022-12-11T22:24:48.442Z,23.77
2022-12-11T22:27:20.425Z,22.95
2022-12-11T22:29:50.162Z,21.80
2022-12-11T22:32:17.169Z,22.33
2022-12-11T22:34:43.967Z,20.80
2022-12-11T22:37:11.107Z,22.73
2022-12-11T22:39:37.867Z,21.42
2022-12-11T22:42:04.938Z,21.63
2022-12-11T22:44:31.685Z,20.30
2022-12-11T22:46:58.698Z,21.25
2022-12-11T22:49:25.438Z,21.67
2022-12-11T22:51:52.519Z,19.27
2022-12-11T22:54:19.655Z,19.30
2022-12-11T22:56:46.788Z,20.95
2022-12-11T22:59:13.515Z,20.63
2022-12-11T23:01:40.756Z,19.27
2022-12-11T23:04:07.557Z,18.58
2022-12-11T23:06:34.650Z,20.33
2022-12-11T23:09:01.498Z,19.95
2022-12-11T23:11:31.123Z,17.92
2022-12-11T23:13:58.240Z,18.23
2022-12-11T23:16:25.880Z,17.98
2022-12-11T23:18:53.359Z,17.67
2022-12-11T23:21:21.702Z,17.55
2022-12-11T23:23:48.743Z,17.48
2022-12-11T23:26:15.951Z,17.75
2022-12-11T23:28:42.642Z,16.67
2022-12-11T23:31:09.815Z,17.80
2022-12-11T23:33:36.916Z,17.30
2022-12-11T23:36:04.388Z,16.85
2022-12-11T23:38:31.182Z,16.65
2022-12-11T23:41:01.713Z,16.30
2022-12-11T23:43:28.432Z,15.57
2022-12-11T23:45:55.572Z,15.27
2022-12-11T23:48:22.521Z,15.57
2022-12-11T23:50:49.548Z,15.10
2022-12-11T23:53:16.243Z,15.57
2022-12-11T23:55:44.159Z,15.32
2022-12-11T23:58:11.088Z,15.63
